sensor_id;sensor_type;location;lat;lon;timestamp;pressure;altitude;pressure_sealevel;temperature
13570;BMP180;6856;51.460;7.158;2022-12-10T00:01:16;99546.00;;;5.80
13570;BMP180;6856;51.460;7.158;2022-12-10T00:03:50;99550.00;;;5.80
13570;BMP180;6856;51.460;7.158;2022-12-10T00:06:31;99503.00;;;5.80
13570;BMP180;6856;51.460;7.158;2022-12-10T00:09:13;99562.00;;;5.80
13570;BMP180;6856;51.460;7.158;2022-12-10T00:11:49;99543.00;;;5.80
13570;BMP180;6856;51.460;7.158;2022-12-10T00:14:27;99562.00;;;5.80
13570;BMP180;6856;51.460;7.158;2022-12-10T00:17:05;99556.00;;;5.80
13570;BMP180;6856;51.460;7.158;2022-12-10T00:19:44;99573.00;;;5.80
13570;BMP180;6856;51.460;7.158;2022-12-10T00:22:18;99562.00;;;5.80
13570;BMP180;6856;51.460;7.158;2022-12-10T00:25:01;99557.00;;;5.80
13570;BMP180;6856;51.460;7.158;2022-12-10T00:27:36;99550.00;;;5.80
13570;BMP180;6856;51.460;7.158;2022-12-10T00:30:20;99498.00;;;5.80
13570;BMP180;6856;51.460;7.158;2022-12-10T00:32:54;99578.00;;;5.60
13570;BMP180;6856;51.460;7.158;2022-12-10T00:35:28;99538.00;;;5.80
13570;BMP180;6856;51.460;7.158;2022-12-10T00:38:02;99553.00;;;5.80
13570;BMP180;6856;51.460;7.158;2022-12-10T00:40:38;99550.00;;;5.80
13570;BMP180;6856;51.460;7.158;2022-12-10T00:43:12;99563.00;;;5.80
13570;BMP180;6856;51.460;7.158;2022-12-10T00:45:48;99562.00;;;5.80
13570;BMP180;6856;51.460;7.158;2022-12-10T00:48:23;99561.00;;;5.80
13570;BMP180;6856;51.460;7.158;2022-12-10T00:51:02;99551.00;;;5.70
13570;BMP180;6856;51.460;7.158;2022-12-10T00:53:58;99536.00;;;5.80
13570;BMP180;6856;51.460;7.158;2022-12-10T00:56:34;99554.00;;;5.70
13570;BMP180;6856;51.460;7.158;2022-12-10T00:59:10;99571.00;;;5.70
13570;BMP180;6856;51.460;7.158;2022-12-10T01:01:48;99562.00;;;5.70
13570;BMP180;6856;51.460;7.158;2022-12-10T01:04:23;99568.00;;;5.70
13570;BMP180;6856;51.460;7.158;2022-12-10T01:06:57;99572.00;;;5.70
13570;BMP180;6856;51.460;7.158;2022-12-10T01:09:33;99576.00;;;5.70
13570;BMP180;6856;51.460;7.158;2022-12-10T01:12:08;99570.00;;;5.70
13570;BMP180;6856;51.460;7.158;2022-12-10T01:14:45;99547.00;;;5.70
13570;BMP180;6856;51.460;7.158;2022-12-10T01:17:20;99575.00;;;5.40
13570;BMP180;6856;51.460;7.158;2022-12-10T01:20:00;99567.00;;;5.70
13570;BMP180;6856;51.460;7.158;2022-12-10T01:22:41;99563.00;;;5.70
13570;BMP180;6856;51.460;7.158;2022-12-10T01:25:20;99570.00;;;5.70
13570;BMP180;6856;51.460;7.158;2022-12-10T01:27:56;99575.00;;;5.60
13570;BMP180;6856;51.460;7.158;2022-12-10T01:30:32;99576.00;;;5.60
13570;BMP180;6856;51.460;7.158;2022-12-10T01:33:08;99573.00;;;5.60
13570;BMP180;6856;51.460;7.158;2022-12-10T01:35:43;99573.00;;;5.60
13570;BMP180;6856;51.460;7.158;2022-12-10T01:38:17;99577.00;;;5.60
13570;BMP180;6856;51.460;7.158;2022-12-10T01:40:51;99574.00;;;5.60
13570;BMP180;6856;51.460;7.158;2022-12-10T01:43:26;99568.00;;;5.60
13570;BMP180;6856;51.460;7.158;2022-12-10T01:46:00;99590.00;;;5.60
13570;BMP180;6856;51.460;7.158;2022-12-10T01:48:36;99597.00;;;5.60
13570;BMP180;6856;51.460;7.158;2022-12-10T01:51:11;99590.00;;;5.60
13570;BMP180;6856;51.460;7.158;2022-12-10T01:53:59;99606.00;;;5.60
13570;BMP180;6856;51.460;7.158;2022-12-10T01:56:42;99611.00;;;5.60
13570;BMP180;6856;51.460;7.158;2022-12-10T01:59:21;99595.00;;;5.60
13570;BMP180;6856;51.460;7.158;2022-12-10T02:02:06;99548.00;;;5.60
13570;BMP180;6856;51.460;7.158;2022-12-10T02:05:09;99548.00;;;5.60
13570;BMP180;6856;51.460;7.158;2022-12-10T02:07:59;99562.00;;;5.60
13570;BMP180;6856;51.460;7.158;2022-12-10T02:10:50;99606.00;;;5.60
13570;BMP180;6856;51.460;7.158;2022-12-10T02:13:38;99603.00;;;5.50
13570;BMP180;6856;51.460;7.158;2022-12-10T02:16:17;99610.00;;;5.50
13570;BMP180;6856;51.460;7.158;2022-12-10T02:18:58;99605.00;;;5.50
13570;BMP180;6856;51.460;7.158;2022-12-10T02:21:39;99598.00;;;5.50
13570;BMP180;6856;51.460;7.158;2022-12-10T02:24:19;99523.00;;;5.50
13570;BMP180;6856;51.460;7.158;2022-12-10T02:27:06;99594.00;;;5.50
13570;BMP180;6856;51.460;7.158;2022-12-10T02:29:49;99607.00;;;5.60
13570;BMP180;6856;51.460;7.158;2022-12-10T02:32:30;99586.00;;;5.60
13570;BMP180;6856;51.460;7.158;2022-12-10T02:35:12;99544.00;;;5.60
13570;BMP180;6856;51.460;7.158;2022-12-10T02:37:53;99590.00;;;5.60
13570;BMP180;6856;51.460;7.158;2022-12-10T02:40:32;99589.00;;;5.60
13570;BMP180;6856;51.460;7.158;2022-12-10T02:46:04;99562.00;;;5.60
13570;BMP180;6856;51.460;7.158;2022-12-10T02:48:43;99516.00;;;5.60
13570;BMP180;6856;51.460;7.158;2022-12-10T02:51:21;99567.00;;;5.60
13570;BMP180;6856;51.460;7.158;2022-12-10T02:54:01;99590.00;;;5.60
13570;BMP180;6856;51.460;7.158;2022-12-10T02:56:43;99587.00;;;5.50
13570;BMP180;6856;51.460;7.158;2022-12-10T02:59:36;99595.00;;;5.60
13570;BMP180;6856;51.460;7.158;2022-12-10T03:02:19;99567.00;;;5.60
13570;BMP180;6856;51.460;7.158;2022-12-10T03:05:10;99590.00;;;5.60
13570;BMP180;6856;51.460;7.158;2022-12-10T03:07:53;99542.00;;;5.60
13570;BMP180;6856;51.460;7.158;2022-12-10T03:10:55;99601.00;;;5.60
13570;BMP180;6856;51.460;7.158;2022-12-10T03:13:40;99605.00;;;5.60
13570;BMP180;6856;51.460;7.158;2022-12-10T03:16:24;99574.00;;;5.60
13570;BMP180;6856;51.460;7.158;2022-12-10T03:19:15;99535.00;;;5.60
13570;BMP180;6856;51.460;7.158;2022-12-10T03:21:56;99607.00;;;5.60
13570;BMP180;6856;51.460;7.158;2022-12-10T03:24:41;99607.00;;;5.40
13570;BMP180;6856;51.460;7.158;2022-12-10T03:27:21;99571.00;;;5.60
13570;BMP180;6856;51.460;7.158;2022-12-10T03:30:04;99616.00;;;5.60
13570;BMP180;6856;51.460;7.158;2022-12-10T03:32:39;99610.00;;;5.60
13570;BMP180;6856;51.460;7.158;2022-12-10T03:35:17;99585.00;;;5.60
13570;BMP180;6856;51.460;7.158;2022-12-10T03:37:53;99625.00;;;5.60
13570;BMP180;6856;51.460;7.158;2022-12-10T03:40:28;99591.00;;;5.70
13570;BMP180;6856;51.460;7.158;2022-12-10T03:43:03;99625.00;;;5.60
13570;BMP180;6856;51.460;7.158;2022-12-10T03:45:45;99620.00;;;5.70
13570;BMP180;6856;51.460;7.158;2022-12-10T03:48:19;99620.00;;;5.70
13570;BMP180;6856;51.460;7.158;2022-12-10T03:51:11;99619.00;;;5.70
13570;BMP180;6856;51.460;7.158;2022-12-10T03:53:53;99625.00;;;5.70
13570;BMP180;6856;51.460;7.158;2022-12-10T03:56:28;99612.00;;;5.70
13570;BMP180;6856;51.460;7.158;2022-12-10T03:59:09;99632.00;;;5.60
13570;BMP180;6856;51.460;7.158;2022-12-10T04:01:45;99621.00;;;5.70
13570;BMP180;6856;51.460;7.158;2022-12-10T04:04:26;99621.00;;;5.70
13570;BMP180;6856;51.460;7.158;2022-12-10T04:07:10;99629.00;;;5.60
13570;BMP180;6856;51.460;7.158;2022-12-10T04:09:46;99634.00;;;5.70
13570;BMP180;6856;51.460;7.158;2022-12-10T04:12:22;99626.00;;;5.70
13570;BMP180;6856;51.460;7.158;2022-12-10T04:15:00;99633.00;;;5.70
13570;BMP180;6856;51.460;7.158;2022-12-10T04:17:57;99626.00;;;5.70
13570;BMP180;6856;51.460;7.158;2022-12-10T04:20:33;99645.00;;;5.70
13570;BMP180;6856;51.460;7.158;2022-12-10T04:23:31;99591.00;;;5.70
13570;BMP180;6856;51.460;7.158;2022-12-10T04:26:24;99612.00;;;5.70
13570;BMP180;6856;51.460;7.158;2022-12-10T04:29:17;99612.00;;;5.70
13570;BMP180;6856;51.460;7.158;2022-12-10T04:31:56;99610.00;;;5.70
13570;BMP180;6856;51.460;7.158;2022-12-10T04:34:32;99615.00;;;5.70
13570;BMP180;6856;51.460;7.158;2022-12-10T04:37:06;99614.00;;;5.70
13570;BMP180;6856;51.460;7.158;2022-12-10T04:39:43;99625.00;;;5.70
13570;BMP180;6856;51.460;7.158;2022-12-10T04:42:17;99578.00;;;5.70
13570;BMP180;6856;51.460;7.158;2022-12-10T04:44:51;99619.00;;;5.70
13570;BMP180;6856;51.460;7.158;2022-12-10T04:47:25;99627.00;;;5.70
13570;BMP180;6856;51.460;7.158;2022-12-10T04:50:01;99617.00;;;5.70
13570;BMP180;6856;51.460;7.158;2022-12-10T04:52:35;99616.00;;;5.70
13570;BMP180;6856;51.460;7.158;2022-12-10T04:55:10;99610.00;;;5.70
13570;BMP180;6856;51.460;7.158;2022-12-10T04:57:44;99622.00;;;5.70
13570;BMP180;6856;51.460;7.158;2022-12-10T05:00:20;99565.00;;;5.70
13570;BMP180;6856;51.460;7.158;2022-12-10T05:02:56;99645.00;;;5.70
13570;BMP180;6856;51.460;7.158;2022-12-10T05:05:36;99621.00;;;5.70
13570;BMP180;6856;51.460;7.158;2022-12-10T05:08:21;99589.00;;;5.50
13570;BMP180;6856;51.460;7.158;2022-12-10T05:11:00;99647.00;;;5.60
13570;BMP180;6856;51.460;7.158;2022-12-10T05:13:39;99635.00;;;5.60
13570;BMP180;6856;51.460;7.158;2022-12-10T05:17:00;99566.00;;;5.60
13570;BMP180;6856;51.460;7.158;2022-12-10T05:19:36;99564.00;;;5.60
13570;BMP180;6856;51.460;7.158;2022-12-10T05:22:13;99651.00;;;5.60
13570;BMP180;6856;51.460;7.158;2022-12-10T05:25:30;99621.00;;;5.50
13570;BMP180;6856;51.460;7.158;2022-12-10T05:28:34;99628.00;;;5.60
13570;BMP180;6856;51.460;7.158;2022-12-10T05:31:14;99625.00;;;5.60
13570;BMP180;6856;51.460;7.158;2022-12-10T05:33:57;99653.00;;;5.40
13570;BMP180;6856;51.460;7.158;2022-12-10T05:36:36;99556.00;;;5.60
13570;BMP180;6856;51.460;7.158;2022-12-10T05:39:23;99644.00;;;5.60
13570;BMP180;6856;51.460;7.158;2022-12-10T05:42:00;99647.00;;;5.60
13570;BMP180;6856;51.460;7.158;2022-12-10T05:44:39;99553.00;;;5.50
13570;BMP180;6856;51.460;7.158;2022-12-10T05:47:14;99616.00;;;5.60
13570;BMP180;6856;51.460;7.158;2022-12-10T05:49:48;99627.00;;;5.50
13570;BMP180;6856;51.460;7.158;2022-12-10T05:52:24;99625.00;;;5.50
13570;BMP180;6856;51.460;7.158;2022-12-10T05:54:58;99611.00;;;5.50
13570;BMP180;6856;51.460;7.158;2022-12-10T05:57:32;99631.00;;;5.50
13570;BMP180;6856;51.460;7.158;2022-12-10T06:00:28;99639.00;;;5.50
13570;BMP180;6856;51.460;7.158;2022-12-10T06:03:05;99627.00;;;5.50
13570;BMP180;6856;51.460;7.158;2022-12-10T06:05:40;99625.00;;;5.50
13570;BMP180;6856;51.460;7.158;2022-12-10T06:08:17;99624.00;;;5.40
13570;BMP180;6856;51.460;7.158;2022-12-10T06:10:53;99632.00;;;5.40
13570;BMP180;6856;51.460;7.158;2022-12-10T06:13:30;99648.00;;;5.40
13570;BMP180;6856;51.460;7.158;2022-12-10T06:16:11;99639.00;;;5.30
13570;BMP180;6856;51.460;7.158;2022-12-10T06:18:46;99610.00;;;5.40
13570;BMP180;6856;51.460;7.158;2022-12-10T06:21:21;99641.00;;;5.30
13570;BMP180;6856;51.460;7.158;2022-12-10T06:23:55;99640.00;;;5.30
13570;BMP180;6856;51.460;7.158;2022-12-10T06:26:29;99630.00;;;5.30
13570;BMP180;6856;51.460;7.158;2022-12-10T06:29:15;99623.00;;;5.20
13570;BMP180;6856;51.460;7.158;2022-12-10T06:31:50;99544.00;;;5.20
13570;BMP180;6856;51.460;7.158;2022-12-10T06:34:35;99616.00;;;5.20
13570;BMP180;6856;51.460;7.158;2022-12-10T06:37:14;99639.00;;;5.10
13570;BMP180;6856;51.460;7.158;2022-12-10T06:39:53;99583.00;;;5.10
13570;BMP180;6856;51.460;7.158;2022-12-10T06:42:45;99624.00;;;5.10
13570;BMP180;6856;51.460;7.158;2022-12-10T06:45:19;99641.00;;;5.10
13570;BMP180;6856;51.460;7.158;2022-12-10T06:47:57;99650.00;;;5.00
13570;BMP180;6856;51.460;7.158;2022-12-10T06:50:31;99654.00;;;5.00
13570;BMP180;6856;51.460;7.158;2022-12-10T06:53:05;99657.00;;;5.00
13570;BMP180;6856;51.460;7.158;2022-12-10T06:55:40;99666.00;;;5.00
13570;BMP180;6856;51.460;7.158;2022-12-10T06:58:14;99657.00;;;5.00
13570;BMP180;6856;51.460;7.158;2022-12-10T07:00:48;99652.00;;;4.90
13570;BMP180;6856;51.460;7.158;2022-12-10T07:03:24;99666.00;;;4.90
13570;BMP180;6856;51.460;7.158;2022-12-10T07:05:58;99680.00;;;4.80
13570;BMP180;6856;51.460;7.158;2022-12-10T07:08:32;99674.00;;;4.70
13570;BMP180;6856;51.460;7.158;2022-12-10T07:11:09;99628.00;;;4.70
13570;BMP180;6856;51.460;7.158;2022-12-10T07:13:45;99698.00;;;4.60
13570;BMP180;6856;51.460;7.158;2022-12-10T07:16:24;99677.00;;;4.60
13570;BMP180;6856;51.460;7.158;2022-12-10T07:19:01;99678.00;;;4.50
13570;BMP180;6856;51.460;7.158;2022-12-10T07:21:43;99683.00;;;4.50
13570;BMP180;6856;51.460;7.158;2022-12-10T07:24:19;99642.00;;;4.50
13570;BMP180;6856;51.460;7.158;2022-12-10T07:26:53;99683.00;;;4.40
13570;BMP180;6856;51.460;7.158;2022-12-10T07:29:36;99629.00;;;4.40
13570;BMP180;6856;51.460;7.158;2022-12-10T07:32:11;99692.00;;;4.40
13570;BMP180;6856;51.460;7.158;2022-12-10T07:34:47;99695.00;;;4.40
13570;BMP180;6856;51.460;7.158;2022-12-10T07:37:29;99696.00;;;4.40
13570;BMP180;6856;51.460;7.158;2022-12-10T07:40:09;99704.00;;;4.40
13570;BMP180;6856;51.460;7.158;2022-12-10T07:42:43;99668.00;;;4.40
13570;BMP180;6856;51.460;7.158;2022-12-10T07:45:25;99701.00;;;4.30
13570;BMP180;6856;51.460;7.158;2022-12-10T07:48:00;99709.00;;;4.30
13570;BMP180;6856;51.460;7.158;2022-12-10T07:50:36;99709.00;;;4.30
13570;BMP180;6856;51.460;7.158;2022-12-10T07:53:11;99711.00;;;4.20
13570;BMP180;6856;51.460;7.158;2022-12-10T07:55:51;99689.00;;;4.20
13570;BMP180;6856;51.460;7.158;2022-12-10T07:58:26;99717.00;;;4.10
13570;BMP180;6856;51.460;7.158;2022-12-10T08:01:05;99709.00;;;4.10
13570;BMP180;6856;51.460;7.158;2022-12-10T08:03:43;99723.00;;;4.10
13570;BMP180;6856;51.460;7.158;2022-12-10T08:06:21;99687.00;;;4.00
13570;BMP180;6856;51.460;7.158;2022-12-10T08:08:57;99718.00;;;4.00
13570;BMP180;6856;51.460;7.158;2022-12-10T08:11:39;99728.00;;;3.90
13570;BMP180;6856;51.460;7.158;2022-12-10T08:14:15;99715.00;;;3.90
13570;BMP180;6856;51.460;7.158;2022-12-10T08:16:49;99736.00;;;3.90
13570;BMP180;6856;51.460;7.158;2022-12-10T08:19:26;99723.00;;;3.90
13570;BMP180;6856;51.460;7.158;2022-12-10T08:22:04;99717.00;;;3.90
13570;BMP180;6856;51.460;7.158;2022-12-10T08:24:38;99750.00;;;3.80
13570;BMP180;6856;51.460;7.158;2022-12-10T08:27:13;99733.00;;;3.80
13570;BMP180;6856;51.460;7.158;2022-12-10T08:29:47;99746.00;;;3.80
13570;BMP180;6856;51.460;7.158;2022-12-10T08:32:24;99750.00;;;3.80
13570;BMP180;6856;51.460;7.158;2022-12-10T08:35:00;99720.00;;;3.80
13570;BMP180;6856;51.460;7.158;2022-12-10T08:37:35;99753.00;;;3.70
13570;BMP180;6856;51.460;7.158;2022-12-10T08:40:11;99741.00;;;3.70
13570;BMP180;6856;51.460;7.158;2022-12-10T08:42:49;99767.00;;;3.70
13570;BMP180;6856;51.460;7.158;2022-12-10T08:45:30;99761.00;;;3.70
13570;BMP180;6856;51.460;7.158;2022-12-10T08:48:11;99712.00;;;3.70
13570;BMP180;6856;51.460;7.158;2022-12-10T08:50:45;99763.00;;;3.60
13570;BMP180;6856;51.460;7.158;2022-12-10T08:53:35;99755.00;;;3.60
13570;BMP180;6856;51.460;7.158;2022-12-10T08:56:10;99706.00;;;3.60
13570;BMP180;6856;51.460;7.158;2022-12-10T08:58:45;99770.00;;;3.50
13570;BMP180;6856;51.460;7.158;2022-12-10T09:01:20;99785.00;;;3.30
13570;BMP180;6856;51.460;7.158;2022-12-10T09:03:58;99780.00;;;3.40
13570;BMP180;6856;51.460;7.158;2022-12-10T09:06:35;99772.00;;;3.40
13570;BMP180;6856;51.460;7.158;2022-12-10T09:09:14;99776.00;;;3.30
13570;BMP180;6856;51.460;7.158;2022-12-10T09:11:48;99753.00;;;3.40
13570;BMP180;6856;51.460;7.158;2022-12-10T09:14:25;99735.00;;;3.30
13570;BMP180;6856;51.460;7.158;2022-12-10T09:17:03;99788.00;;;3.40
13570;BMP180;6856;51.460;7.158;2022-12-10T09:19:37;99795.00;;;3.40
13570;BMP180;6856;51.460;7.158;2022-12-10T09:22:18;99792.00;;;3.40
13570;BMP180;6856;51.460;7.158;2022-12-10T09:24:55;99806.00;;;3.40
13570;BMP180;6856;51.460;7.158;2022-12-10T09:27:32;99795.00;;;3.40
13570;BMP180;6856;51.460;7.158;2022-12-10T09:30:13;99804.00;;;3.40
13570;BMP180;6856;51.460;7.158;2022-12-10T09:32:47;99808.00;;;3.40
13570;BMP180;6856;51.460;7.158;2022-12-10T09:35:23;99783.00;;;3.50
13570;BMP180;6856;51.460;7.158;2022-12-10T09:37:57;99804.00;;;3.50
13570;BMP180;6856;51.460;7.158;2022-12-10T09:40:58;99802.00;;;3.50
13570;BMP180;6856;51.460;7.158;2022-12-10T09:43:47;99801.00;;;3.50
13570;BMP180;6856;51.460;7.158;2022-12-10T09:46:44;99802.00;;;3.50
13570;BMP180;6856;51.460;7.158;2022-12-10T09:49:36;99811.00;;;3.30
13570;BMP180;6856;51.460;7.158;2022-12-10T09:52:21;99763.00;;;3.60
13570;BMP180;6856;51.460;7.158;2022-12-10T09:55:13;99799.00;;;3.60
13570;BMP180;6856;51.460;7.158;2022-12-10T09:57:51;99788.00;;;3.60
13570;BMP180;6856;51.460;7.158;2022-12-10T10:00:33;99795.00;;;3.60
13570;BMP180;6856;51.460;7.158;2022-12-10T10:03:15;99778.00;;;3.70
13570;BMP180;6856;51.460;7.158;2022-12-10T10:05:52;99788.00;;;3.70
13570;BMP180;6856;51.460;7.158;2022-12-10T10:08:35;99792.00;;;3.60
13570;BMP180;6856;51.460;7.158;2022-12-10T10:11:16;99795.00;;;3.60
13570;BMP180;6856;51.460;7.158;2022-12-10T10:13:56;99795.00;;;3.70
13570;BMP180;6856;51.460;7.158;2022-12-10T10:16:40;99799.00;;;3.70
13570;BMP180;6856;51.460;7.158;2022-12-10T10:19:26;99834.00;;;3.70
13570;BMP180;6856;51.460;7.158;2022-12-10T10:22:01;99787.00;;;3.60
13570;BMP180;6856;51.460;7.158;2022-12-10T10:24:45;99799.00;;;3.70
13570;BMP180;6856;51.460;7.158;2022-12-10T10:27:31;99670.00;;;3.70
13570;BMP180;6856;51.460;7.158;2022-12-10T10:30:18;99795.00;;;3.80
13570;BMP180;6856;51.460;7.158;2022-12-10T10:32:55;99768.00;;;3.80
13570;BMP180;6856;51.460;7.158;2022-12-10T10:35:49;99787.00;;;3.80
13570;BMP180;6856;51.460;7.158;2022-12-10T10:38:38;99765.00;;;3.90
13570;BMP180;6856;51.460;7.158;2022-12-10T10:41:15;99763.00;;;3.90
13570;BMP180;6856;51.460;7.158;2022-12-10T10:44:00;99784.00;;;3.80
13570;BMP180;6856;51.460;7.158;2022-12-10T10:46:39;99781.00;;;4.00
13570;BMP180;6856;51.460;7.158;2022-12-10T10:49:24;99790.00;;;4.00
13570;BMP180;6856;51.460;7.158;2022-12-10T10:52:00;99782.00;;;4.00
13570;BMP180;6856;51.460;7.158;2022-12-10T10:54:40;99803.00;;;4.00
13570;BMP180;6856;51.460;7.158;2022-12-10T10:57:23;99787.00;;;4.00
13570;BMP180;6856;51.460;7.158;2022-12-10T11:00:04;99794.00;;;4.00
13570;BMP180;6856;51.460;7.158;2022-12-10T11:02:53;99794.00;;;4.10
13570;BMP180;6856;51.460;7.158;2022-12-10T11:05:30;99797.00;;;4.00
13570;BMP180;6856;51.460;7.158;2022-12-10T11:08:17;99783.00;;;4.10
13570;BMP180;6856;51.460;7.158;2022-12-10T11:11:02;99795.00;;;4.10
13570;BMP180;6856;51.460;7.158;2022-12-10T11:13:38;99764.00;;;4.10
13570;BMP180;6856;51.460;7.158;2022-12-10T11:16:20;99779.00;;;4.10
13570;BMP180;6856;51.460;7.158;2022-12-10T11:19:00;99779.00;;;4.10
13570;BMP180;6856;51.460;7.158;2022-12-10T11:21:39;99800.00;;;4.10
13570;BMP180;6856;51.460;7.158;2022-12-10T11:24:18;99783.00;;;4.10
13570;BMP180;6856;51.460;7.158;2022-12-10T11:27:07;99729.00;;;4.10
13570;BMP180;6856;51.460;7.158;2022-12-10T11:30:01;99794.00;;;4.10
13570;BMP180;6856;51.460;7.158;2022-12-10T11:33:20;99774.00;;;4.20
13570;BMP180;6856;51.460;7.158;2022-12-10T11:36:06;99771.00;;;4.10
13570;BMP180;6856;51.460;7.158;2022-12-10T11:38:58;99794.00;;;4.20
13570;BMP180;6856;51.460;7.158;2022-12-10T11:41:53;99793.00;;;4.00
13570;BMP180;6856;51.460;7.158;2022-12-10T11:44:39;99804.00;;;4.20
13570;BMP180;6856;51.460;7.158;2022-12-10T11:47:38;99786.00;;;4.20
13570;BMP180;6856;51.460;7.158;2022-12-10T11:50:27;99788.00;;;4.20
13570;BMP180;6856;51.460;7.158;2022-12-10T11:53:29;99780.00;;;4.20
13570;BMP180;6856;51.460;7.158;2022-12-10T11:56:22;99786.00;;;4.10
13570;BMP180;6856;51.460;7.158;2022-12-10T11:59:16;99763.00;;;4.20
13570;BMP180;6856;51.460;7.158;2022-12-10T12:05:26;99792.00;;;4.20
13570;BMP180;6856;51.460;7.158;2022-12-10T12:08:16;99804.00;;;4.20
13570;BMP180;6856;51.460;7.158;2022-12-10T12:11:30;99795.00;;;4.30
13570;BMP180;6856;51.460;7.158;2022-12-10T12:14:13;99796.00;;;4.30
13570;BMP180;6856;51.460;7.158;2022-12-10T12:17:01;99799.00;;;4.30
13570;BMP180;6856;51.460;7.158;2022-12-10T12:19:39;99798.00;;;4.10
13570;BMP180;6856;51.460;7.158;2022-12-10T12:22:28;99804.00;;;4.30
13570;BMP180;6856;51.460;7.158;2022-12-10T12:25:22;99722.00;;;4.30
13570;BMP180;6856;51.460;7.158;2022-12-10T12:28:11;99786.00;;;4.30
13570;BMP180;6856;51.460;7.158;2022-12-10T12:30:54;99721.00;;;4.40
13570;BMP180;6856;51.460;7.158;2022-12-10T12:33:50;99819.00;;;4.40
13570;BMP180;6856;51.460;7.158;2022-12-10T12:36:33;99765.00;;;4.40
13570;BMP180;6856;51.460;7.158;2022-12-10T12:39:31;99787.00;;;4.40
13570;BMP180;6856;51.460;7.158;2022-12-10T12:42:24;99812.00;;;4.30
13570;BMP180;6856;51.460;7.158;2022-12-10T12:45:14;99805.00;;;4.30
13570;BMP180;6856;51.460;7.158;2022-12-10T12:48:02;99799.00;;;4.30
13570;BMP180;6856;51.460;7.158;2022-12-10T12:50:44;99807.00;;;4.30
13570;BMP180;6856;51.460;7.158;2022-12-10T12:53:23;99760.00;;;4.30
13570;BMP180;6856;51.460;7.158;2022-12-10T12:56:20;99799.00;;;4.30
13570;BMP180;6856;51.460;7.158;2022-12-10T12:59:18;99808.00;;;4.30
13570;BMP180;6856;51.460;7.158;2022-12-10T13:02:02;99807.00;;;4.40
13570;BMP180;6856;51.460;7.158;2022-12-10T13:04:41;99804.00;;;4.40
13570;BMP180;6856;51.460;7.158;2022-12-10T13:07:34;99813.00;;;4.40
13570;BMP180;6856;51.460;7.158;2022-12-10T13:10:25;99779.00;;;4.40
13570;BMP180;6856;51.460;7.158;2022-12-10T13:13:24;99810.00;;;4.40
13570;BMP180;6856;51.460;7.158;2022-12-10T13:19:51;99773.00;;;4.30
13570;BMP180;6856;51.460;7.158;2022-12-10T13:22:43;99794.00;;;4.30
13570;BMP180;6856;51.460;7.158;2022-12-10T13:25:59;99793.00;;;4.20
13570;BMP180;6856;51.460;7.158;2022-12-10T13:28:49;99794.00;;;4.20
13570;BMP180;6856;51.460;7.158;2022-12-10T13:31:36;99784.00;;;4.30
13570;BMP180;6856;51.460;7.158;2022-12-10T13:34:36;99769.00;;;4.30
13570;BMP180;6856;51.460;7.158;2022-12-10T13:37:27;99802.00;;;4.30
13570;BMP180;6856;51.460;7.158;2022-12-10T13:40:25;99823.00;;;4.30
13570;BMP180;6856;51.460;7.158;2022-12-10T13:43:35;99807.00;;;4.30
13570;BMP180;6856;51.460;7.158;2022-12-10T13:46:33;99808.00;;;4.30
13570;BMP180;6856;51.460;7.158;2022-12-10T13:49:18;99800.00;;;4.30
13570;BMP180;6856;51.460;7.158;2022-12-10T13:52:01;99808.00;;;4.40
13570;BMP180;6856;51.460;7.158;2022-12-10T13:55:22;99812.00;;;4.40
13570;BMP180;6856;51.460;7.158;2022-12-10T13:58:27;99821.00;;;4.30
13570;BMP180;6856;51.460;7.158;2022-12-10T14:01:25;99823.00;;;4.40
13570;BMP180;6856;51.460;7.158;2022-12-10T14:04:56;99805.00;;;4.40
13570;BMP180;6856;51.460;7.158;2022-12-10T14:07:39;99823.00;;;4.30
13570;BMP180;6856;51.460;7.158;2022-12-10T14:10:23;99821.00;;;4.30
13570;BMP180;6856;51.460;7.158;2022-12-10T14:13:00;99845.00;;;4.30
13570;BMP180;6856;51.460;7.158;2022-12-10T14:15:50;99820.00;;;4.30
13570;BMP180;6856;51.460;7.158;2022-12-10T14:18:28;99831.00;;;4.30
13570;BMP180;6856;51.460;7.158;2022-12-10T14:21:06;99829.00;;;4.30
13570;BMP180;6856;51.460;7.158;2022-12-10T14:23:49;99842.00;;;4.30
13570;BMP180;6856;51.460;7.158;2022-12-10T14:26:31;99840.00;;;4.30
13570;BMP180;6856;51.460;7.158;2022-12-10T14:29:20;99843.00;;;4.30
13570;BMP180;6856;51.460;7.158;2022-12-10T14:32:05;99832.00;;;4.30
13570;BMP180;6856;51.460;7.158;2022-12-10T14:34:49;99832.00;;;4.40
13570;BMP180;6856;51.460;7.158;2022-12-10T14:37:33;99835.00;;;4.40
13570;BMP180;6856;51.460;7.158;2022-12-10T14:40:21;99856.00;;;4.50
13570;BMP180;6856;51.460;7.158;2022-12-10T14:43:04;99855.00;;;4.50
13570;BMP180;6856;51.460;7.158;2022-12-10T14:45:46;99850.00;;;4.50
13570;BMP180;6856;51.460;7.158;2022-12-10T14:48:24;99850.00;;;4.50
13570;BMP180;6856;51.460;7.158;2022-12-10T14:51:04;99858.00;;;4.40
13570;BMP180;6856;51.460;7.158;2022-12-10T14:53:44;99844.00;;;4.50
13570;BMP180;6856;51.460;7.158;2022-12-10T14:56:28;99853.00;;;4.50
13570;BMP180;6856;51.460;7.158;2022-12-10T14:59:11;99846.00;;;4.50
13570;BMP180;6856;51.460;7.158;2022-12-10T15:01:49;99840.00;;;4.50
13570;BMP180;6856;51.460;7.158;2022-12-10T15:04:41;99837.00;;;4.50
13570;BMP180;6856;51.460;7.158;2022-12-10T15:07:22;99804.00;;;4.50
13570;BMP180;6856;51.460;7.158;2022-12-10T15:09:58;99795.00;;;4.50
13570;BMP180;6856;51.460;7.158;2022-12-10T15:12:40;99863.00;;;4.50
13570;BMP180;6856;51.460;7.158;2022-12-10T15:15:24;99824.00;;;4.50
13570;BMP180;6856;51.460;7.158;2022-12-10T15:18:14;99858.00;;;4.50
13570;BMP180;6856;51.460;7.158;2022-12-10T15:21:02;99850.00;;;4.50
13570;BMP180;6856;51.460;7.158;2022-12-10T15:23:38;99862.00;;;4.50
13570;BMP180;6856;51.460;7.158;2022-12-10T15:26:19;99854.00;;;4.40
13570;BMP180;6856;51.460;7.158;2022-12-10T15:32:12;99857.00;;;4.40
13570;BMP180;6856;51.460;7.158;2022-12-10T15:34:54;99863.00;;;4.40
13570;BMP180;6856;51.460;7.158;2022-12-10T15:37:35;99866.00;;;4.40
13570;BMP180;6856;51.460;7.158;2022-12-10T15:40:24;99864.00;;;4.50
13570;BMP180;6856;51.460;7.158;2022-12-10T15:43:13;99856.00;;;4.30
13570;BMP180;6856;51.460;7.158;2022-12-10T15:45:56;99817.00;;;4.20
13570;BMP180;6856;51.460;7.158;2022-12-10T15:48:32;99864.00;;;4.50
13570;BMP180;6856;51.460;7.158;2022-12-10T15:51:08;99863.00;;;4.50
13570;BMP180;6856;51.460;7.158;2022-12-10T15:53:42;99854.00;;;4.50
13570;BMP180;6856;51.460;7.158;2022-12-10T15:56:16;99845.00;;;4.50
13570;BMP180;6856;51.460;7.158;2022-12-10T15:58:50;99880.00;;;4.50
13570;BMP180;6856;51.460;7.158;2022-12-10T16:01:26;99871.00;;;4.50
13570;BMP180;6856;51.460;7.158;2022-12-10T16:04:04;99888.00;;;4.50
13570;BMP180;6856;51.460;7.158;2022-12-10T16:06:41;99887.00;;;4.50
13570;BMP180;6856;51.460;7.158;2022-12-10T16:09:15;99884.00;;;4.50
13570;BMP180;6856;51.460;7.158;2022-12-10T16:11:50;99885.00;;;4.50
13570;BMP180;6856;51.460;7.158;2022-12-10T16:14:25;99888.00;;;4.60